createdAt,value
2023-06-04T00:01:35.525Z,45.78
2023-06-04T00:04:28.641Z,45.83
2023-06-04T00:07:20.887Z,45.99
2023-06-04T00:10:13.443Z,46.17
2023-06-04T00:13:05.597Z,46.21
2023-06-04T00:15:57.741Z,46.32
2023-06-04T00:18:49.893Z,46.44
2023-06-04T00:21:42.055Z,46.57
2023-06-04T00:24:34.209Z,46.67
2023-06-04T00:27:26.349Z,46.79
2023-06-04T00:30:18.746Z,46.92
2023-06-04T00:33:11.038Z,47.05
2023-06-04T00:36:03.465Z,47.15
2023-06-04T00:38:55.622Z,47.30
2023-06-04T00:41:48.030Z,47.34
2023-06-04T00:45:01.022Z,47.31
2023-06-04T00:47:53.137Z,47.46
2023-06-04T00:50:46.106Z,47.55
2023-06-04T00:53:38.331Z,47.63
2023-06-04T00:56:31.083Z,47.83
2023-06-04T00:59:23.517Z,47.94
2023-06-04T01:02:21.112Z,48.04
2023-06-04T01:05:18.830Z,48.21
2023-06-04T01:08:11.215Z,48.30
2023-06-04T01:11:03.286Z,48.45
2023-06-04T01:13:55.415Z,48.65
2023-06-04T01:16:51.897Z,48.79
2023-06-04T01:20:07.020Z,48.88
2023-06-04T01:22:50.610Z,49.01
2023-06-04T01:25:45.074Z,49.17
2023-06-04T01:28:38.373Z,49.28
2023-06-04T01:31:34.123Z,49.31
2023-06-04T01:34:26.493Z,49.35
2023-06-04T01:37:19.211Z,49.49
2023-06-04T01:40:12.559Z,49.55
2023-06-04T01:43:04.954Z,49.67
2023-06-04T01:45:57.716Z,49.73
2023-06-04T01:48:50.030Z,49.84
2023-06-04T01:51:42.134Z,49.89
2023-06-04T01:54:34.982Z,50.10
2023-06-04T01:57:27.600Z,50.10
2023-06-04T02:00:20.443Z,50.28
2023-06-04T02:03:13.818Z,50.34
2023-06-04T02:06:08.563Z,50.50
2023-06-04T02:09:01.700Z,50.78
2023-06-04T02:11:53.880Z,50.88
2023-06-04T02:14:48.020Z,51.09
2023-06-04T02:17:41.293Z,51.28
2023-06-04T02:20:33.561Z,51.39
2023-06-04T02:23:25.862Z,51.59
2023-06-04T02:26:18.417Z,51.72
2023-06-04T02:29:10.701Z,51.98
2023-06-04T02:32:02.937Z,52.20
2023-06-04T02:34:56.562Z,52.33
2023-06-04T02:37:48.684Z,52.46
2023-06-04T02:40:41.015Z,52.63
2023-06-04T02:43:33.162Z,52.81
2023-06-04T02:46:25.424Z,52.96
2023-06-04T02:49:17.601Z,53.04
2023-06-04T02:51:58.202Z,53.09
2023-06-04T02:54:50.365Z,53.14
2023-06-04T02:57:44.141Z,53.47
2023-06-04T03:00:36.729Z,53.55
2023-06-04T03:03:28.978Z,53.78
2023-06-04T03:06:22.385Z,54.02
2023-06-04T03:09:14.846Z,54.17
2023-06-04T03:11:55.656Z,54.21
2023-06-04T03:14:47.811Z,54.35
2023-06-04T03:17:40.322Z,54.58
2023-06-04T03:20:47.818Z,54.65
2023-06-04T03:23:40.355Z,54.93
2023-06-04T03:26:32.426Z,54.93
2023-06-04T03:29:14.391Z,54.87
2023-06-04T03:32:07.942Z,55.06
2023-06-04T03:35:00.155Z,55.08
2023-06-04T03:37:52.383Z,55.24
2023-06-04T03:40:44.529Z,55.16
2023-06-04T03:43:36.526Z,55.28
2023-06-04T03:46:32.674Z,55.23
2023-06-04T03:49:24.865Z,55.32
2023-06-04T03:52:17.364Z,55.35
2023-06-04T03:55:07.246Z,55.29
2023-06-04T03:57:59.395Z,55.20
2023-06-04T04:00:51.506Z,55.20
2023-06-04T04:03:44.203Z,55.17
2023-06-04T04:06:36.560Z,54.91
2023-06-04T04:09:17.321Z,55.00
2023-06-04T04:12:10.606Z,54.89
2023-06-04T04:15:03.179Z,54.85
2023-06-04T04:17:55.268Z,54.83
2023-06-04T04:20:47.994Z,54.84
2023-06-04T04:23:42.112Z,54.60
2023-06-04T04:26:35.274Z,54.31
2023-06-04T04:29:29.029Z,54.14
2023-06-04T04:32:21.328Z,53.87
2023-06-04T04:35:13.738Z,53.80
2023-06-04T04:38:05.901Z,53.54
2023-06-04T04:40:58.517Z,53.45
2023-06-04T04:43:50.691Z,53.22
2023-06-04T04:46:27.901Z,52.76
2023-06-04T04:49:20.074Z,52.52
2023-06-04T04:52:12.200Z,52.23
2023-06-04T04:55:04.925Z,52.27
2023-06-04T04:57:57.083Z,51.74
2023-06-04T05:00:49.805Z,51.49
2023-06-04T05:03:41.948Z,50.96
2023-06-04T05:06:34.134Z,50.24
2023-06-04T05:09:26.229Z,50.24
2023-06-04T05:12:18.600Z,49.82
2023-06-04T05:15:13.709Z,49.66
2023-06-04T05:18:06.037Z,49.18
2023-06-04T05:20:58.957Z,49.05
2023-06-04T05:23:51.421Z,48.12
2023-06-04T05:26:43.771Z,47.69
2023-06-04T05:29:36.039Z,47.52
2023-06-04T05:32:29.579Z,47.15
2023-06-04T05:35:22.144Z,47.09
2023-06-04T05:38:18.260Z,46.59
2023-06-04T05:41:00.611Z,45.84
2023-06-04T05:43:52.992Z,45.53
2023-06-04T05:46:45.106Z,45.10
2023-06-04T05:49:38.314Z,45.12
2023-06-04T05:52:30.375Z,44.75
2023-06-04T05:55:22.853Z,42.72
2023-06-04T05:58:03.803Z,39.90
2023-06-04T06:00:56.123Z,37.24
2023-06-04T06:03:48.634Z,34.86
2023-06-04T06:06:40.922Z,33.28
2023-06-04T06:09:33.036Z,31.37
2023-06-04T06:12:25.207Z,30.22
2023-06-04T06:15:17.939Z,28.58
2023-06-04T06:18:10.190Z,27.24
2023-06-04T06:21:02.418Z,25.17
2023-06-04T06:23:49.768Z,24.40
2023-06-04T06:26:25.340Z,23.86
2023-06-04T06:29:17.539Z,23.16
2023-06-04T06:32:09.764Z,22.04
2023-06-04T06:35:01.965Z,21.40
2023-06-04T06:37:54.099Z,21.15
2023-06-04T06:40:46.456Z,20.81
2023-06-04T06:43:38.819Z,20.22
2023-06-04T06:46:31.157Z,18.91
2023-06-04T06:49:23.370Z,18.08
2023-06-04T06:52:15.463Z,18.13
2023-06-04T06:55:08.529Z,17.93
2023-06-04T06:58:00.685Z,17.23
2023-06-04T07:00:53.048Z,17.43
2023-06-04T07:03:41.722Z,16.71
2023-06-04T07:06:34.334Z,16.89
2023-06-04T07:09:23.642Z,16.71
2023-06-04T07:12:15.767Z,17.00
2023-06-04T07:14:50.557Z,18.03
2023-06-04T07:17:43.036Z,18.92
2023-06-04T07:20:24.100Z,19.94
2023-06-04T07:23:16.460Z,20.67
2023-06-04T07:25:48.517Z,21.50
2023-06-04T07:28:26.164Z,22.21
2023-06-04T07:31:16.705Z,22.68
2023-06-04T07:34:08.846Z,23.34
2023-06-04T07:36:58.293Z,23.88
2023-06-04T07:39:50.562Z,24.53
2023-06-04T07:42:44.071Z,25.12
2023-06-04T07:45:19.071Z,25.14
2023-06-04T07:48:13.038Z,25.63
2023-06-04T07:51:06.527Z,26.35
2023-06-04T07:53:39.014Z,26.87
2023-06-04T07:56:21.947Z,26.84
2023-06-04T07:59:14.245Z,27.41
2023-06-04T08:02:07.284Z,27.55
2023-06-04T08:04:59.538Z,27.68
2023-06-04T08:07:45.106Z,28.43
2023-06-04T08:10:37.798Z,28.30
2023-06-04T08:13:29.970Z,28.66
2023-06-04T08:16:22.110Z,28.95
2023-06-04T08:19:14.782Z,28.41
2023-06-04T08:22:07.638Z,28.51
2023-06-04T08:24:59.843Z,29.03
2023-06-04T08:27:52.279Z,28.58
2023-06-04T08:30:44.479Z,29.00
2023-06-04T08:33:36.677Z,28.87
2023-06-04T08:36:28.944Z,29.11
2023-06-04T08:39:06.580Z,28.84
2023-06-04T08:42:03.872Z,29.08
2023-06-04T08:44:56.430Z,29.00
2023-06-04T08:47:39.343Z,28.87
2023-06-04T08:50:32.876Z,29.11
2023-06-04T08:53:07.601Z,29.37
2023-06-04T08:55:52.996Z,30.35
2023-06-04T08:58:46.008Z,29.71
2023-06-04T09:01:39.357Z,30.06
2023-06-04T09:04:32.918Z,30.12
2023-06-04T09:07:26.159Z,29.28
2023-06-04T09:10:24.053Z,29.13
2023-06-04T09:13:17.651Z,29.35
2023-06-04T09:16:09.893Z,29.64
2023-06-04T09:19:05.251Z,30.11
2023-06-04T09:21:58.953Z,29.22
2023-06-04T09:24:51.563Z,28.89
2023-06-04T09:27:43.965Z,28.51
2023-06-04T09:30:36.569Z,29.09
2023-06-04T09:33:29.739Z,29.32
2023-06-04T09:36:22.724Z,28.94
2023-06-04T09:39:22.042Z,29.17
2023-06-04T09:42:14.187Z,29.17
2023-06-04T09:45:07.930Z,29.03
2023-06-04T09:48:00.309Z,28.83
2023-06-04T09:50:52.508Z,28.60
2023-06-04T09:53:55.004Z,28.64
2023-06-04T09:56:47.129Z,28.62
2023-06-04T09:59:45.328Z,28.91
2023-06-04T10:02:34.207Z,28.85
2023-06-04T10:05:28.559Z,28.93
2023-06-04T10:08:23.844Z,29.06
2023-06-04T10:11:19.571Z,28.91
2023-06-04T10:14:02.286Z,28.67
2023-06-04T10:16:56.290Z,29.13
2023-06-04T10:19:52.923Z,28.86
2023-06-04T10:22:46.132Z,28.67
2023-06-04T10:25:39.264Z,28.41
2023-06-04T10:28:31.664Z,28.63
2023-06-04T10:31:12.423Z,28.82
2023-06-04T10:34:05.144Z,28.44
2023-06-04T10:36:57.534Z,28.14
2023-06-04T10:39:54.999Z,28.35
2023-06-04T10:42:47.244Z,28.11
2023-06-04T10:45:40.083Z,28.12
2023-06-04T10:48:32.386Z,28.28
2023-06-04T10:51:35.231Z,28.32
2023-06-04T10:54:27.900Z,28.15
2023-06-04T10:57:21.374Z,27.91
2023-06-04T11:00:15.635Z,27.92
2023-06-04T11:03:10.039Z,27.70
2023-06-04T11:06:02.274Z,27.66
2023-06-04T11:09:06.363Z,27.58
2023-06-04T11:12:00.245Z,27.38
2023-06-04T11:14:59.532Z,27.28
2023-06-04T11:17:56.588Z,27.02
2023-06-04T11:20:51.118Z,27.28
2023-06-04T11:23:44.478Z,26.98
2023-06-04T11:26:40.732Z,26.91
2023-06-04T11:29:36.138Z,26.48
2023-06-04T11:32:28.544Z,26.35
2023-06-04T11:35:21.008Z,26.40
2023-06-04T11:38:13.443Z,26.20
2023-06-04T11:41:07.234Z,26.47
2023-06-04T11:43:51.223Z,26.71
2023-06-04T11:46:45.548Z,26.89
2023-06-04T11:49:38.614Z,26.84
2023-06-04T11:52:31.316Z,26.97
2023-06-04T11:55:24.222Z,26.72
2023-06-04T11:58:16.709Z,27.08
2023-06-04T12:00:57.080Z,27.27
2023-06-04T12:03:49.178Z,26.98
2023-06-04T12:06:42.518Z,26.98
2023-06-04T12:09:35.983Z,27.46
2023-06-04T12:12:28.130Z,27.50
2023-06-04T12:15:24.570Z,26.96
2023-06-04T12:18:29.408Z,26.31
2023-06-04T12:21:28.674Z,26.43
2023-06-04T12:24:20.768Z,27.12
2023-06-04T12:27:13.258Z,26.49
2023-06-04T12:30:08.526Z,27.20
2023-06-04T12:33:00.819Z,27.32
2023-06-04T12:35:52.996Z,27.50
2023-06-04T12:38:47.166Z,27.52
2023-06-04T12:41:46.608Z,27.68
2023-06-04T12:44:38.921Z,27.77
2023-06-04T12:47:13.639Z,27.69
2023-06-04T12:49:49.233Z,27.33
2023-06-04T12:52:42.053Z,27.34
2023-06-04T12:55:19.511Z,27.58
2023-06-04T12:58:11.661Z,27.51
2023-06-04T13:00:46.596Z,27.30
2023-06-04T13:03:40.181Z,27.20
2023-06-04T13:06:32.531Z,26.97
2023-06-04T13:09:24.940Z,26.89
2023-06-04T13:12:17.158Z,27.16
2023-06-04T13:15:10.904Z,27.03
2023-06-04T13:18:04.196Z,26.47
2023-06-04T13:20:56.475Z,26.88
2023-06-04T13:23:50.277Z,26.93
2023-06-04T13:26:43.513Z,27.19
2023-06-04T13:29:35.872Z,27.01
2023-06-04T13:32:28.038Z,27.21
2023-06-04T13:35:10.497Z,26.99
2023-06-04T13:37:51.759Z,26.92
2023-06-04T13:40:44.119Z,26.49
2023-06-04T13:43:36.268Z,26.73
2023-06-04T13:46:13.577Z,26.89
2023-06-04T13:49:06.706Z,26.93
2023-06-04T13:51:58.865Z,26.71
2023-06-04T13:54:52.371Z,26.76
2023-06-04T13:57:44.628Z,27.12
2023-06-04T14:00:37.345Z,27.39
2023-06-04T14:03:29.576Z,27.44
2023-06-04T14:06:21.794Z,27.50
2023-06-04T14:09:10.329Z,27.50
2023-06-04T14:11:51.324Z,27.21
2023-06-04T14:14:37.334Z,27.25
2023-06-04T14:17:29.567Z,27.29
2023-06-04T14:20:21.774Z,26.78
2023-06-04T14:23:14.085Z,26.90
2023-06-04T14:26:06.462Z,27.51
2023-06-04T14:28:58.634Z,27.53
2023-06-04T14:31:50.906Z,27.64
2023-06-04T14:34:39.328Z,27.68
2023-06-04T14:37:31.500Z,27.64
2023-06-04T14:40:23.649Z,27.63
2023-06-04T14:43:16.486Z,27.70
2023-06-04T14:46:09.256Z,27.68
2023-06-04T14:49:01.939Z,27.76
2023-06-04T14:51:54.144Z,27.72
2023-06-04T14:54:46.163Z,27.77
2023-06-04T14:57:38.454Z,27.69
2023-06-04T15:00:30.706Z,27.64
2023-06-04T15:03:23.005Z,27.61
2023-06-04T15:06:19.246Z,27.76
2023-06-04T15:09:12.359Z,27.73
2023-06-04T15:12:05.357Z,27.74
2023-06-04T15:14:57.581Z,27.61
2023-06-04T15:17:50.082Z,27.29
2023-06-04T15:20:26.014Z,27.46
2023-06-04T15:23:18.940Z,27.40
2023-06-04T15:26:11.253Z,27.17
2023-06-04T15:29:03.373Z,26.95
2023-06-04T15:31:47.258Z,27.12
2023-06-04T15:34:39.523Z,27.04
2023-06-04T15:37:31.864Z,27.05
2023-06-04T15:40:24.613Z,27.32
2023-06-04T15:43:17.066Z,27.01
2023-06-04T15:46:09.409Z,27.03
2023-06-04T15:49:06.836Z,27.18
2023-06-04T15:51:58.967Z,27.09
2023-06-04T15:54:51.090Z,26.98
2023-06-04T15:57:43.249Z,26.67
2023-06-04T16:00:35.527Z,26.53
2023-06-04T16:03:27.665Z,26.89
2023-06-04T16:06:20.066Z,27.13
2023-06-04T16:09:13.121Z,27.19
2023-06-04T16:12:06.361Z,27.20
2023-06-04T16:14:58.820Z,27.55
2023-06-04T16:17:51.185Z,27.55
2023-06-04T16:20:43.367Z,27.70
2023-06-04T16:23:35.623Z,27.62
2023-06-04T16:26:28.053Z,27.81
2023-06-04T16:29:20.567Z,27.81
2023-06-04T16:32:12.675Z,27.67
2023-06-04T16:35:05.161Z,27.64
2023-06-04T16:37:57.341Z,27.58
2023-06-04T16:40:49.455Z,27.59
2023-06-04T16:43:41.768Z,27.85
2023-06-04T16:46:33.951Z,28.11
2023-06-04T16:49:26.818Z,28.05
2023-06-04T16:52:19.314Z,28.15
2023-06-04T16:55:13.463Z,28.14
2023-06-04T16:58:05.898Z,28.23
2023-06-04T17:00:58.271Z,28.32
2023-06-04T17:03:52.570Z,28.32
2023-06-04T17:06:45.476Z,28.34
2023-06-04T17:09:37.979Z,28.29
2023-06-04T17:12:30.143Z,28.42
2023-06-04T17:15:22.823Z,28.27
2023-06-04T17:18:15.421Z,28.36
2023-06-04T17:21:07.790Z,28.35
2023-06-04T17:23:59.958Z,28.57
2023-06-04T17:26:52.545Z,28.52
2023-06-04T17:29:45.290Z,28.67
2023-06-04T17:32:37.517Z,28.88
2023-06-04T17:35:29.680Z,29.18
2023-06-04T17:38:23.364Z,29.01
2023-06-04T17:41:16.544Z,29.13
2023-06-04T17:44:08.995Z,29.14
2023-06-04T17:47:05.142Z,29.12
2023-06-04T17:49:57.480Z,29.23
2023-06-04T17:52:51.529Z,29.48
2023-06-04T17:55:43.962Z,29.53
2023-06-04T17:58:36.466Z,29.73
2023-06-04T18:01:28.956Z,29.78
2023-06-04T18:04:21.232Z,29.88
2023-06-04T18:07:14.643Z,29.96
2023-06-04T18:10:09.289Z,30.14
2023-06-04T18:13:01.778Z,30.11
2023-06-04T18:15:56.188Z,30.29
2023-06-04T18:18:48.902Z,30.25
2023-06-04T18:21:30.313Z,30.39
2023-06-04T18:24:23.384Z,30.54
2023-06-04T18:27:16.215Z,30.78
2023-06-04T18:30:10.381Z,30.70
2023-06-04T18:33:02.882Z,30.82
2023-06-04T18:35:55.090Z,31.02
2023-06-04T18:38:47.592Z,31.23
2023-06-04T18:41:40.648Z,31.43
2023-06-04T18:44:33.155Z,31.55
2023-06-04T18:47:27.758Z,31.73
2023-06-04T18:50:20.348Z,31.76
2023-06-04T18:53:13.211Z,31.91
2023-06-04T18:56:06.982Z,32.07
2023-06-04T18:58:59.570Z,32.21
2023-06-04T19:01:52.204Z,32.35
2023-06-04T19:04:46.331Z,32.41
2023-06-04T19:07:40.667Z,32.55
2023-06-04T19:10:33.334Z,32.83
2023-06-04T19:13:25.801Z,33.02
2023-06-04T19:16:19.554Z,33.50
2023-06-04T19:19:12.005Z,33.91
2023-06-04T19:22:05.586Z,34.32
2023-06-04T19:24:58.887Z,34.52
2023-06-04T19:27:54.832Z,34.85
2023-06-04T19:30:47.864Z,35.08
2023-06-04T19:33:42.208Z,35.18
2023-06-04T19:36:34.761Z,35.09
2023-06-04T19:39:27.268Z,35.47
2023-06-04T19:42:19.503Z,35.76
2023-06-04T19:45:00.649Z,35.87
2023-06-04T19:47:53.397Z,36.03
2023-06-04T19:50:46.819Z,36.34
2023-06-04T19:53:41.173Z,36.78
2023-06-04T19:56:33.316Z,37.38
2023-06-04T19:59:25.978Z,37.74
2023-06-04T20:02:18.750Z,38.01
2023-06-04T20:05:13.568Z,38.43
2023-06-04T20:07:46.821Z,38.64
2023-06-04T20:10:39.388Z,38.77
2023-06-04T20:13:31.655Z,38.88
2023-06-04T20:16:24.003Z,39.27
2023-06-04T20:19:16.458Z,39.61
2023-06-04T20:22:10.030Z,39.99
2023-06-04T20:25:02.962Z,40.34
2023-06-04T20:27:55.220Z,40.47
2023-06-04T20:30:47.598Z,40.76
2023-06-04T20:33:40.759Z,40.93
2023-06-04T20:36:33.814Z,41.22
2023-06-04T20:39:08.595Z,41.34
2023-06-04T20:41:50.379Z,41.76
2023-06-04T20:44:42.647Z,42.16
2023-06-04T20:47:35.075Z,42.56
2023-06-04T20:50:27.369Z,42.75
2023-06-04T20:53:05.416Z,42.84
2023-06-04T20:55:57.673Z,43.28
2023-06-04T20:58:49.962Z,43.50
2023-06-04T21:01:42.486Z,43.67
2023-06-04T21:04:35.745Z,43.66
2023-06-04T21:07:24.245Z,44.03
2023-06-04T21:10:16.656Z,44.37
2023-06-04T21:13:08.780Z,44.58
2023-06-04T21:15:49.799Z,44.69
2023-06-04T21:18:42.001Z,44.81
2023-06-04T21:21:34.107Z,44.81
2023-06-04T21:24:26.258Z,44.84
2023-06-04T21:27:18.336Z,44.95
2023-06-04T21:30:12.115Z,45.23
2023-06-04T21:32:54.354Z,45.53
2023-06-04T21:35:46.638Z,45.84
2023-06-04T21:38:38.934Z,46.13
2023-06-04T21:41:31.322Z,46.36
2023-06-04T21:44:06.897Z,46.38
2023-06-04T21:46:59.613Z,46.60
2023-06-04T21:49:42.967Z,46.78
2023-06-04T21:52:35.081Z,47.08
2023-06-04T21:55:27.166Z,47.35
2023-06-04T21:58:20.880Z,47.37
2023-06-04T22:01:13.215Z,47.45
2023-06-04T22:04:05.628Z,47.57
2023-06-04T22:06:49.164Z,47.82
2023-06-04T22:09:41.341Z,48.08
2023-06-04T22:12:33.566Z,48.19
2023-06-04T22:15:25.852Z,48.32
2023-06-04T22:18:18.019Z,48.51
2023-06-04T22:21:10.365Z,48.70
2023-06-04T22:24:03.388Z,48.87
2023-06-04T22:26:55.655Z,48.92
2023-06-04T22:29:47.732Z,49.20
2023-06-04T22:32:39.883Z,49.42
2023-06-04T22:35:32.202Z,49.58
2023-06-04T22:38:24.845Z,49.72
2023-06-04T22:40:59.707Z,49.80
2023-06-04T22:43:52.033Z,50.12
2023-06-04T22:46:44.234Z,50.14
2023-06-04T22:49:36.386Z,50.41
2023-06-04T22:52:28.462Z,50.61
2023-06-04T22:55:20.658Z,50.69
2023-06-04T22:58:12.812Z,50.88
2023-06-04T23:01:05.299Z,51.00
2023-06-04T23:03:50.548Z,51.10
2023-06-04T23:06:42.736Z,51.17
2023-06-04T23:09:34.867Z,51.05
2023-06-04T23:12:27.105Z,51.08
2023-06-04T23:15:25.089Z,51.28
2023-06-04T23:18:17.266Z,51.32
2023-06-04T23:20:52.324Z,51.43
2023-06-04T23:23:44.526Z,51.66
2023-06-04T23:26:22.316Z,51.71
2023-06-04T23:29:14.695Z,51.85
2023-06-04T23:32:07.569Z,51.86
2023-06-04T23:34:59.775Z,51.96
2023-06-04T23:37:52.045Z,52.07
2023-06-04T23:40:44.275Z,52.24
2023-06-04T23:43:36.493Z,52.26
2023-06-04T23:46:28.729Z,52.28
2023-06-04T23:49:21.204Z,52.43
2023-06-04T23:52:13.691Z,52.50
2023-06-04T23:55:35.811Z,52.49
2023-06-04T23:58:28.014Z,52.64
